createdAt,value
2023-02-23T00:00:06.283Z,31.50
2023-02-23T00:01:06.309Z,33.20
2023-02-23T00:02:06.338Z,33.50
2023-02-23T00:03:06.393Z,33.00
2023-02-23T00:04:06.219Z,34.00
2023-02-23T00:05:06.203Z,32.60
2023-02-23T00:06:06.167Z,32.10
2023-02-23T00:07:06.347Z,32.50
2023-02-23T00:08:06.134Z,36.60
2023-02-23T00:09:06.130Z,34.70
2023-02-23T00:10:06.147Z,36.00
2023-02-23T00:11:06.114Z,30.80
2023-02-23T00:12:06.091Z,35.90
2023-02-23T00:13:06.120Z,34.10
2023-02-23T00:14:06.071Z,33.20
2023-02-23T00:15:06.051Z,36.00
2023-02-23T00:16:06.101Z,34.80
2023-02-23T00:17:06.010Z,35.40
2023-02-23T00:18:06.003Z,33.80
2023-02-23T00:19:06.115Z,35.10
2023-02-23T00:20:06.000Z,34.50
2023-02-23T00:21:05.984Z,34.10
2023-02-23T00:22:05.969Z,36.50
2023-02-23T00:23:05.957Z,34.80
2023-02-23T00:24:05.931Z,37.30
2023-02-23T00:25:05.983Z,35.10
2023-02-23T00:26:05.904Z,35.70
2023-02-23T00:27:05.914Z,37.80
2023-02-23T00:28:05.930Z,38.30
2023-02-23T00:29:05.866Z,38.00
2023-02-23T00:30:05.924Z,36.40
2023-02-23T00:31:05.884Z,37.20
2023-02-23T00:32:05.945Z,35.20
2023-02-23T00:33:05.824Z,37.40
2023-02-23T00:34:05.826Z,34.90
2023-02-23T00:35:05.822Z,37.40
2023-02-23T00:36:05.773Z,36.40
2023-02-23T00:37:05.819Z,37.30
2023-02-23T00:38:05.793Z,38.80
2023-02-23T00:39:05.744Z,38.80
2023-02-23T00:40:05.757Z,39.30
2023-02-23T00:41:05.707Z,39.60
2023-02-23T00:42:05.722Z,37.10
2023-02-23T00:43:05.759Z,39.10
2023-02-23T00:44:05.674Z,38.20
2023-02-23T00:45:05.677Z,40.20
2023-02-23T00:46:05.760Z,38.10
2023-02-23T00:47:05.737Z,40.40
2023-02-23T00:48:05.643Z,36.70
2023-02-23T00:49:05.676Z,40.90
2023-02-23T00:50:05.698Z,39.80
2023-02-23T00:51:05.565Z,38.10
2023-02-23T00:52:05.590Z,39.00
2023-02-23T00:53:13.037Z,42.60
2023-02-23T00:54:05.575Z,42.00
2023-02-23T00:55:05.577Z,39.10
2023-02-23T00:56:05.545Z,38.40
2023-02-23T00:57:14.016Z,40.00
2023-02-23T00:58:05.468Z,41.00
2023-02-23T00:59:05.563Z,40.70
2023-02-23T01:00:05.507Z,45.00
2023-02-23T01:01:05.504Z,41.80
2023-02-23T01:02:05.459Z,44.40
2023-02-23T01:03:05.429Z,44.60
2023-02-23T01:04:05.412Z,42.20
2023-02-23T01:05:05.380Z,40.90
2023-02-23T01:06:05.404Z,44.90
2023-02-23T01:07:05.389Z,45.40
2023-02-23T01:08:05.378Z,43.40
2023-02-23T01:09:05.369Z,42.80
2023-02-23T01:10:05.339Z,47.80
2023-02-23T01:11:05.297Z,44.50
2023-02-23T01:12:05.378Z,44.80
2023-02-23T01:13:05.287Z,46.00
2023-02-23T01:14:05.286Z,43.20
2023-02-23T01:15:05.271Z,45.90
2023-02-23T01:16:05.254Z,42.60
2023-02-23T01:17:05.214Z,44.40
2023-02-23T01:18:05.300Z,40.20
2023-02-23T01:19:05.231Z,46.30
2023-02-23T01:20:05.220Z,41.10
2023-02-23T01:21:05.187Z,41.70
2023-02-23T01:22:05.181Z,43.80
2023-02-23T01:23:05.161Z,43.80
2023-02-23T01:24:05.234Z,38.70
2023-02-23T01:25:05.119Z,44.60
2023-02-23T01:26:05.119Z,41.30
2023-02-23T01:27:05.166Z,44.30
2023-02-23T01:28:05.166Z,42.70
2023-02-23T01:29:05.090Z,42.00
2023-02-23T01:30:05.130Z,41.20
2023-02-23T01:31:05.123Z,46.00
2023-02-23T01:32:05.316Z,42.70
2023-02-23T01:33:05.022Z,43.60
2023-02-23T01:34:05.036Z,43.20
2023-02-23T01:35:04.994Z,43.10
2023-02-23T01:36:05.019Z,44.00
2023-02-23T01:37:04.985Z,40.30
2023-02-23T01:38:04.961Z,44.30
2023-02-23T01:39:04.934Z,43.90
2023-02-23T01:40:04.969Z,41.40
2023-02-23T01:41:04.899Z,43.10
2023-02-23T01:42:04.932Z,45.20
2023-02-23T01:43:04.914Z,42.10
2023-02-23T01:44:04.872Z,45.70
2023-02-23T01:45:04.893Z,43.80
2023-02-23T01:46:04.926Z,45.50
2023-02-23T01:47:04.824Z,42.90
2023-02-23T01:48:04.835Z,44.30
2023-02-23T01:49:04.803Z,50.00
2023-02-23T01:50:04.822Z,45.50
2023-02-23T01:51:04.796Z,48.00
2023-02-23T01:52:04.773Z,53.00
2023-02-23T01:53:04.760Z,50.20
2023-02-23T01:54:04.773Z,48.10
2023-02-23T01:55:04.746Z,44.60
2023-02-23T01:56:04.733Z,46.60
2023-02-23T01:57:04.695Z,43.20
2023-02-23T01:58:04.673Z,44.10
2023-02-23T01:59:04.700Z,45.80
2023-02-23T02:00:04.683Z,45.20
2023-02-23T02:01:04.674Z,45.70
2023-02-23T02:02:04.674Z,44.80
2023-02-23T02:03:04.602Z,49.30
2023-02-23T02:04:04.611Z,50.70
2023-02-23T02:05:04.742Z,49.90
2023-02-23T02:06:04.629Z,53.60
2023-02-23T02:07:04.611Z,47.20
2023-02-23T02:08:04.551Z,49.20
2023-02-23T02:09:04.541Z,55.10
2023-02-23T02:10:04.569Z,60.00
2023-02-23T02:11:04.553Z,58.70
2023-02-23T02:12:04.560Z,58.00
2023-02-23T02:13:04.489Z,55.90
2023-02-23T02:14:04.532Z,58.60
2023-02-23T02:15:04.506Z,61.10
2023-02-23T02:16:04.490Z,57.00
2023-02-23T02:17:04.592Z,59.70
2023-02-23T02:18:04.432Z,55.80
2023-02-23T02:19:04.401Z,51.80
2023-02-23T02:20:04.568Z,56.90
2023-02-23T02:21:04.417Z,62.30
2023-02-23T02:22:04.363Z,64.90
2023-02-23T02:23:04.461Z,65.70
2023-02-23T02:24:04.358Z,61.00
2023-02-23T02:25:04.403Z,63.20
2023-02-23T02:26:04.502Z,61.50
2023-02-23T02:27:04.301Z,64.00
2023-02-23T02:28:04.321Z,64.10
2023-02-23T02:29:04.301Z,58.90
2023-02-23T02:30:04.404Z,58.90
2023-02-23T02:31:04.281Z,61.20
2023-02-23T02:32:04.417Z,59.50
2023-02-23T02:33:04.306Z,61.80
2023-02-23T02:34:04.222Z,63.20
2023-02-23T02:35:04.242Z,65.10
2023-02-23T02:36:04.256Z,67.80
2023-02-23T02:37:04.225Z,67.10
2023-02-23T02:38:04.172Z,65.80
2023-02-23T02:39:04.236Z,67.70
2023-02-23T02:40:04.152Z,68.40
2023-02-23T02:41:04.119Z,66.20
2023-02-23T02:42:04.191Z,69.60
2023-02-23T02:43:04.112Z,67.80
2023-02-23T02:44:04.081Z,74.60
2023-02-23T02:45:04.122Z,75.10
2023-02-23T02:46:04.091Z,87.60
2023-02-23T02:47:04.033Z,85.90
2023-02-23T02:48:04.115Z,79.60
2023-02-23T02:49:04.026Z,75.80
2023-02-23T02:50:04.020Z,75.10
2023-02-23T02:51:03.997Z,70.90
2023-02-23T02:52:03.973Z,68.50
2023-02-23T02:53:03.986Z,71.60
2023-02-23T02:54:04.013Z,75.40
2023-02-23T02:55:04.080Z,80.40
2023-02-23T02:56:03.954Z,77.20
2023-02-23T02:57:03.973Z,79.00
2023-02-23T02:58:03.950Z,81.60
2023-02-23T02:59:03.885Z,79.00
2023-02-23T03:00:03.959Z,81.40
2023-02-23T03:01:03.924Z,82.40
2023-02-23T03:02:03.906Z,87.20
2023-02-23T03:03:03.846Z,75.50
2023-02-23T03:04:03.941Z,85.20
2023-02-23T03:05:03.936Z,83.80
2023-02-23T03:06:03.871Z,77.30
2023-02-23T03:07:03.861Z,86.40
2023-02-23T03:08:03.762Z,86.90
2023-02-23T03:09:03.785Z,85.80
2023-02-23T03:10:03.810Z,84.90
2023-02-23T03:11:03.806Z,93.30
2023-02-23T03:12:03.757Z,91.20
2023-02-23T03:13:03.773Z,96.90
2023-02-23T03:14:03.736Z,87.70
2023-02-23T03:15:03.726Z,92.20
2023-02-23T03:16:03.803Z,99.30
2023-02-23T03:17:03.709Z,96.80
2023-02-23T03:18:03.716Z,96.20
2023-02-23T03:19:03.692Z,99.30
2023-02-23T03:20:03.634Z,98.30
2023-02-23T03:21:03.615Z,104.40
2023-02-23T03:22:03.696Z,104.40
2023-02-23T03:23:03.641Z,101.30
2023-02-23T03:24:03.643Z,101.00
2023-02-23T03:25:03.640Z,105.10
2023-02-23T03:26:03.566Z,106.10
2023-02-23T03:27:03.582Z,110.20
2023-02-23T03:28:03.545Z,113.30
2023-02-23T03:29:03.511Z,117.30
2023-02-23T03:30:03.521Z,111.40
2023-02-23T03:31:03.541Z,117.60
2023-02-23T03:32:03.572Z,119.60
2023-02-23T03:33:03.437Z,115.50
2023-02-23T03:34:03.493Z,106.90
2023-02-23T03:35:03.425Z,110.30
2023-02-23T03:36:03.427Z,114.10
2023-02-23T03:37:03.420Z,119.60
2023-02-23T03:38:03.354Z,129.50
2023-02-23T03:39:03.349Z,122.10
2023-02-23T03:40:03.430Z,141.70
2023-02-23T03:41:03.335Z,140.90
2023-02-23T03:42:03.370Z,117.30
2023-02-23T03:43:03.376Z,107.70
2023-02-23T03:44:03.294Z,108.70
2023-02-23T03:45:03.286Z,116.60
2023-02-23T03:46:03.307Z,108.40
2023-02-23T03:47:03.296Z,104.10
2023-02-23T03:48:03.311Z,105.60
2023-02-23T03:49:03.224Z,121.80
2023-02-23T03:50:03.223Z,115.30
2023-02-23T03:51:03.225Z,121.00
2023-02-23T03:52:03.244Z,114.20
2023-02-23T03:53:03.194Z,111.10
2023-02-23T03:54:03.258Z,103.00
2023-02-23T03:55:03.153Z,107.30
2023-02-23T03:56:03.171Z,109.10
2023-02-23T03:57:03.178Z,115.30
2023-02-23T03:58:03.128Z,120.10
2023-02-23T03:59:03.123Z,119.30
2023-02-23T04:00:03.182Z,120.50
2023-02-23T04:01:03.106Z,111.70
2023-02-23T04:02:03.218Z,117.00
2023-02-23T04:03:06.692Z,105.70
2023-02-23T04:04:03.092Z,131.30
2023-02-23T04:05:03.044Z,122.60
2023-02-23T04:06:03.031Z,123.90
2023-02-23T04:07:03.057Z,118.30
2023-02-23T04:08:02.998Z,113.10
2023-02-23T04:09:02.958Z,129.20
2023-02-23T04:10:02.994Z,121.80
2023-02-23T04:11:02.952Z,136.40
2023-02-23T04:12:02.959Z,122.00
2023-02-23T04:13:03.013Z,122.60
2023-02-23T04:14:02.898Z,122.30
2023-02-23T04:15:02.927Z,126.60
2023-02-23T04:16:02.984Z,111.60
2023-02-23T04:17:02.897Z,115.80
2023-02-23T04:18:02.869Z,117.20
2023-02-23T04:19:02.915Z,123.10
2023-02-23T04:20:02.860Z,134.30
2023-02-23T04:21:02.880Z,135.30
2023-02-23T04:22:02.887Z,134.90
2023-02-23T04:23:02.788Z,136.90
2023-02-23T04:24:02.800Z,130.70
2023-02-23T04:25:02.793Z,139.80
2023-02-23T04:26:02.806Z,141.80
2023-02-23T04:27:02.735Z,122.70
2023-02-23T04:28:02.699Z,125.40
2023-02-23T04:29:02.776Z,127.00
2023-02-23T04:30:02.798Z,124.70
2023-02-23T04:31:02.743Z,124.50
2023-02-23T04:32:02.728Z,120.70
2023-02-23T04:33:02.693Z,122.30
2023-02-23T04:34:02.649Z,115.30
2023-02-23T04:35:02.674Z,127.90
2023-02-23T04:36:02.699Z,126.80
2023-02-23T04:37:02.659Z,124.50
2023-02-23T04:38:02.630Z,123.70
2023-02-23T04:39:02.622Z,117.90
2023-02-23T04:40:02.587Z,120.50
2023-02-23T04:41:02.593Z,122.60
2023-02-23T04:42:02.629Z,137.00
2023-02-23T04:43:02.549Z,134.50
2023-02-23T04:44:02.531Z,143.80
2023-02-23T04:45:02.499Z,147.00
2023-02-23T04:46:02.546Z,151.60
2023-02-23T04:47:02.480Z,151.40
2023-02-23T04:48:02.498Z,158.80
2023-02-23T04:49:02.453Z,154.90
2023-02-23T04:50:02.540Z,176.00
2023-02-23T04:51:02.463Z,163.20
2023-02-23T04:52:02.402Z,168.10
2023-02-23T04:53:02.451Z,184.30
2023-02-23T04:54:02.389Z,190.80
2023-02-23T04:55:02.384Z,182.70
2023-02-23T04:56:02.404Z,170.40
2023-02-23T04:57:02.367Z,158.40
2023-02-23T04:58:02.323Z,149.90
2023-02-23T04:59:02.419Z,151.20
2023-02-23T05:00:02.332Z,150.90
2023-02-23T05:01:02.336Z,149.70
2023-02-23T05:02:02.339Z,139.10
2023-02-23T05:03:02.244Z,147.60
2023-02-23T05:04:02.248Z,148.50
2023-02-23T05:05:02.277Z,150.70
2023-02-23T05:06:02.251Z,134.30
2023-02-23T05:07:02.254Z,162.50
2023-02-23T05:08:02.191Z,151.60
2023-02-23T05:09:02.198Z,155.80
2023-02-23T05:10:02.177Z,155.50
2023-02-23T05:11:02.170Z,162.20
2023-02-23T05:12:02.194Z,168.10
2023-02-23T05:13:02.205Z,154.80
2023-02-23T05:14:02.104Z,153.20
2023-02-23T05:15:02.108Z,161.60
2023-02-23T05:16:02.248Z,163.20
2023-02-23T05:17:02.097Z,167.70
2023-02-23T05:18:02.050Z,173.80
2023-02-23T05:19:02.050Z,180.90
2023-02-23T05:20:02.055Z,173.30
2023-02-23T05:21:02.041Z,159.00
2023-02-23T05:22:02.059Z,147.40
2023-02-23T05:23:02.038Z,150.00
2023-02-23T05:24:01.969Z,135.20
2023-02-23T05:25:01.972Z,140.10
2023-02-23T05:26:01.970Z,138.80
2023-02-23T05:27:01.980Z,147.60
2023-02-23T05:28:01.950Z,151.20
2023-02-23T05:29:01.956Z,151.90
2023-02-23T05:30:01.902Z,140.60
2023-02-23T05:31:01.999Z,163.30
2023-02-23T05:32:02.056Z,173.10
2023-02-23T05:33:01.865Z,158.70
2023-02-23T05:34:01.873Z,164.20
2023-02-23T05:35:01.847Z,166.50
2023-02-23T05:36:01.810Z,168.00
2023-02-23T05:37:01.859Z,156.30
2023-02-23T05:38:01.783Z,163.50
2023-02-23T05:39:01.787Z,162.20
2023-02-23T05:40:01.840Z,159.80
2023-02-23T05:41:01.756Z,151.90
2023-02-23T05:42:01.749Z,179.00
2023-02-23T05:43:01.761Z,208.80
2023-02-23T05:44:01.711Z,181.20
2023-02-23T05:45:01.706Z,180.70
2023-02-23T05:46:01.829Z,182.20
2023-02-23T05:47:01.691Z,177.80
2023-02-23T05:48:01.647Z,156.90
2023-02-23T05:49:01.633Z,144.50
2023-02-23T05:50:01.716Z,150.90
2023-02-23T05:51:01.614Z,146.10
2023-02-23T05:52:01.801Z,147.30
2023-02-23T05:53:01.630Z,144.10
2023-02-23T05:54:01.638Z,135.80
2023-02-23T05:55:01.617Z,138.30
2023-02-23T05:56:01.586Z,134.40
2023-02-23T05:57:01.964Z,135.30
2023-02-23T05:58:01.824Z,137.20
2023-02-23T05:59:01.545Z,144.10
2023-02-23T06:00:01.548Z,146.10
2023-02-23T06:01:01.546Z,137.90
2023-02-23T06:02:01.486Z,134.90
2023-02-23T06:03:01.465Z,143.70
2023-02-23T06:04:01.569Z,138.90
2023-02-23T06:05:01.461Z,135.00
2023-02-23T06:06:01.586Z,130.70
2023-02-23T06:07:01.396Z,138.70
2023-02-23T06:08:01.395Z,131.60
2023-02-23T06:09:01.393Z,135.80
2023-02-23T06:10:01.406Z,127.60
2023-02-23T06:11:01.356Z,134.10
2023-02-23T06:12:01.370Z,122.90
2023-02-23T06:13:08.842Z,126.50
2023-02-23T06:14:01.312Z,124.30
2023-02-23T06:15:01.329Z,127.00
2023-02-23T06:16:01.470Z,122.90
2023-02-23T06:17:01.301Z,117.00
2023-02-23T06:18:01.302Z,116.30
2023-02-23T06:19:01.350Z,111.00
2023-02-23T06:20:01.249Z,121.10
2023-02-23T06:21:01.301Z,122.80
2023-02-23T06:22:01.313Z,128.50
2023-02-23T06:23:01.213Z,119.70
2023-02-23T06:24:01.272Z,128.40
2023-02-23T06:25:01.212Z,120.50
2023-02-23T06:26:01.216Z,128.20
2023-02-23T06:27:01.166Z,124.70
2023-02-23T06:28:01.187Z,131.90
2023-02-23T06:29:01.152Z,127.30
2023-02-23T06:30:01.160Z,153.00
2023-02-23T06:31:01.285Z,153.60
2023-02-23T06:32:01.392Z,162.10
2023-02-23T06:33:01.081Z,147.30
2023-02-23T06:34:01.131Z,160.90
2023-02-23T06:35:01.064Z,152.60
2023-02-23T06:36:01.073Z,139.20
2023-02-23T06:37:01.064Z,139.90
2023-02-23T06:38:01.000Z,142.90
2023-02-23T06:39:00.971Z,146.80
2023-02-23T06:40:01.047Z,142.60
2023-02-23T06:41:01.019Z,144.50
2023-02-23T06:42:01.028Z,150.20
2023-02-23T06:43:01.131Z,156.50
2023-02-23T06:44:00.908Z,148.70
2023-02-23T06:45:00.901Z,135.40
2023-02-23T06:46:00.995Z,132.20
2023-02-23T06:47:00.970Z,115.90
2023-02-23T06:48:00.952Z,105.80
2023-02-23T06:49:00.876Z,113.60
2023-02-23T06:50:00.862Z,141.60
2023-02-23T06:51:00.903Z,138.30
2023-02-23T06:52:00.845Z,126.80
2023-02-23T06:53:00.850Z,142.20
2023-02-23T06:54:00.773Z,148.30
2023-02-23T06:55:00.766Z,140.20
2023-02-23T06:56:00.881Z,138.50
2023-02-23T06:57:00.764Z,140.40
2023-02-23T06:58:00.823Z,135.20
2023-02-23T06:59:00.775Z,129.80
2023-02-23T07:00:00.706Z,130.30
2023-02-23T07:01:00.721Z,131.10
2023-02-23T07:02:00.843Z,124.90
2023-02-23T07:03:00.677Z,131.60
2023-02-23T07:04:00.725Z,125.80
2023-02-23T07:05:00.746Z,108.20
2023-02-23T07:06:00.646Z,117.60
2023-02-23T07:07:00.605Z,109.00
2023-02-23T07:08:00.644Z,110.30
2023-02-23T07:09:00.617Z,112.30
2023-02-23T07:10:00.606Z,112.00
2023-02-23T07:11:00.696Z,119.60
2023-02-23T07:12:00.595Z,115.00
2023-02-23T07:13:00.565Z,110.30
2023-02-23T07:14:00.802Z,108.50
2023-02-23T07:15:00.505Z,101.30
2023-02-23T07:16:00.568Z,93.90
2023-02-23T07:17:00.592Z,97.10
2023-02-23T07:18:00.494Z,97.70
2023-02-23T07:19:00.477Z,92.50
2023-02-23T07:21:09.912Z,76.50
2023-02-23T07:22:09.856Z,82.60
2023-02-23T07:23:09.863Z,92.20
2023-02-23T07:24:09.927Z,96.80
2023-02-23T07:25:09.772Z,90.30
2023-02-23T07:26:10.014Z,95.20
2023-02-23T07:27:09.985Z,91.90
2023-02-23T07:28:09.770Z,88.00
2023-02-23T07:29:09.704Z,91.80
2023-02-23T07:30:09.707Z,91.10
2023-02-23T07:31:09.797Z,86.80
2023-02-23T07:32:09.879Z,89.60
2023-02-23T07:33:09.692Z,89.00
2023-02-23T07:34:09.714Z,89.20
2023-02-23T07:35:09.716Z,99.20
2023-02-23T07:36:09.618Z,88.80
2023-02-23T07:37:09.750Z,90.50
2023-02-23T07:38:09.574Z,88.00
2023-02-23T07:39:09.623Z,84.90
2023-02-23T07:40:09.762Z,92.40
2023-02-23T07:41:09.623Z,88.60
2023-02-23T07:42:09.568Z,93.10
2023-02-23T07:43:09.779Z,86.20
2023-02-23T07:44:09.542Z,88.90
2023-02-23T07:45:09.517Z,92.20
2023-02-23T07:46:09.560Z,86.60
2023-02-23T07:47:09.520Z,90.50
2023-02-23T07:48:09.500Z,87.40
2023-02-23T07:49:09.451Z,90.70
2023-02-23T07:50:09.514Z,92.30
2023-02-23T07:51:10.110Z,95.60
2023-02-23T07:52:09.423Z,98.70
2023-02-23T07:53:09.504Z,93.00
2023-02-23T07:54:09.379Z,84.70
2023-02-23T07:55:09.352Z,93.20
2023-02-23T07:56:09.348Z,89.30
2023-02-23T07:57:09.461Z,90.30
2023-02-23T07:58:09.387Z,92.70
2023-02-23T07:59:09.356Z,95.80
2023-02-23T08:00:09.370Z,96.50
2023-02-23T08:01:09.316Z,97.20
2023-02-23T08:02:09.331Z,88.40
2023-02-23T08:03:09.453Z,94.00
2023-02-23T08:04:09.352Z,92.90
2023-02-23T08:05:09.238Z,89.00
2023-02-23T08:06:09.299Z,91.50
2023-02-23T08:07:09.206Z,88.80
2023-02-23T08:08:09.199Z,88.80
2023-02-23T08:09:09.230Z,85.30
2023-02-23T08:10:09.238Z,87.80
2023-02-23T08:11:09.151Z,84.80
2023-02-23T08:12:09.148Z,80.60
2023-02-23T08:13:09.109Z,74.70
2023-02-23T08:14:09.159Z,81.30
2023-02-23T08:15:09.128Z,79.90
2023-02-23T08:16:09.089Z,80.50
2023-02-23T08:17:09.105Z,80.60
2023-02-23T08:18:09.079Z,89.00
2023-02-23T08:19:09.048Z,79.70
2023-02-23T08:20:09.060Z,72.90
2023-02-23T08:21:09.029Z,74.30
2023-02-23T08:22:10.249Z,77.60
2023-02-23T08:23:09.107Z,78.70
2023-02-23T08:24:08.992Z,81.90
2023-02-23T08:25:09.007Z,79.40
2023-02-23T08:26:09.107Z,76.30
2023-02-23T08:27:08.974Z,75.30
2023-02-23T08:28:09.023Z,81.80
2023-02-23T08:29:08.902Z,82.50
2023-02-23T08:30:09.166Z,82.20
2023-02-23T08:31:08.983Z,82.50
2023-02-23T08:32:09.006Z,79.50
2023-02-23T08:33:09.071Z,78.50
2023-02-23T08:34:08.863Z,72.10
2023-02-23T08:35:08.850Z,65.80
2023-02-23T08:36:08.886Z,67.60
2023-02-23T08:37:08.817Z,66.20
2023-02-23T08:38:08.779Z,63.50
2023-02-23T08:39:08.926Z,66.80
2023-02-23T08:40:08.792Z,64.40
2023-02-23T08:41:08.803Z,63.50
2023-02-23T08:42:08.881Z,64.30
2023-02-23T08:43:08.700Z,73.30
2023-02-23T08:44:08.731Z,68.30
2023-02-23T08:45:08.825Z,67.80
2023-02-23T08:46:08.660Z,66.90
2023-02-23T08:47:08.653Z,67.20
2023-02-23T08:48:08.807Z,68.70
2023-02-23T08:49:08.674Z,64.00
2023-02-23T08:50:08.608Z,66.00
2023-02-23T08:51:08.638Z,63.20
2023-02-23T08:52:08.688Z,57.10
2023-02-23T08:53:08.648Z,61.30
2023-02-23T08:54:08.638Z,60.90
2023-02-23T08:55:08.546Z,60.50
2023-02-23T08:56:08.611Z,62.10
2023-02-23T08:57:08.528Z,60.40
2023-02-23T08:58:08.535Z,63.60
2023-02-23T08:59:08.542Z,59.50
2023-02-23T09:00:08.473Z,54.70
2023-02-23T09:01:08.511Z,54.40
2023-02-23T09:02:08.511Z,49.20
2023-02-23T09:03:08.464Z,51.60
2023-02-23T09:04:08.421Z,47.10
2023-02-23T09:05:08.699Z,44.50
2023-02-23T09:06:08.510Z,45.00
2023-02-23T09:07:08.385Z,44.20
2023-02-23T09:08:08.533Z,41.90
2023-02-23T09:09:08.691Z,41.60
2023-02-23T09:10:08.442Z,43.60
2023-02-23T09:11:08.320Z,42.70
2023-02-23T09:12:08.381Z,45.20
2023-02-23T09:13:08.278Z,41.60
2023-02-23T09:14:08.281Z,43.00
2023-02-23T09:15:08.321Z,42.30
2023-02-23T09:16:08.297Z,38.90
2023-02-23T09:17:08.304Z,38.60
2023-02-23T09:18:08.210Z,39.80
2023-02-23T09:19:08.209Z,34.90
2023-02-23T09:20:08.276Z,35.00
2023-02-23T09:21:08.221Z,37.50
2023-02-23T09:22:08.160Z,35.20
2023-02-23T09:23:08.190Z,35.00
2023-02-23T09:24:08.135Z,36.80
2023-02-23T09:25:08.120Z,35.30
2023-02-23T09:26:08.130Z,33.20
2023-02-23T09:27:08.119Z,32.70
2023-02-23T09:28:08.082Z,37.80
2023-02-23T09:29:08.101Z,34.60
2023-02-23T09:30:08.062Z,38.90
2023-02-23T09:31:08.416Z,40.50
2023-02-23T09:32:08.143Z,45.70
2023-02-23T09:33:08.102Z,36.70
2023-02-23T09:34:07.999Z,35.80
2023-02-23T09:35:08.071Z,38.90
2023-02-23T09:36:07.989Z,37.30
2023-02-23T09:37:07.980Z,33.60
2023-02-23T09:38:08.003Z,30.80
2023-02-23T09:39:08.021Z,29.60
2023-02-23T09:40:07.962Z,33.90
2023-02-23T09:41:07.932Z,33.60
2023-02-23T09:42:07.888Z,29.20
2023-02-23T09:43:08.009Z,32.20
2023-02-23T09:44:07.872Z,31.90
2023-02-23T09:45:07.946Z,31.40
2023-02-23T09:46:08.063Z,32.20
2023-02-23T09:47:07.853Z,29.80
2023-02-23T09:48:07.850Z,30.30
2023-02-23T09:49:07.829Z,28.60
2023-02-23T09:50:07.792Z,27.30
2023-02-23T09:51:07.885Z,29.10
2023-02-23T09:52:07.812Z,26.50
2023-02-23T09:53:07.840Z,26.20
2023-02-23T09:54:07.722Z,26.20
2023-02-23T09:55:07.725Z,23.50
2023-02-23T09:56:07.771Z,24.70
2023-02-23T09:57:07.734Z,26.30
2023-02-23T09:58:07.663Z,23.40
2023-02-23T09:59:09.969Z,22.80
2023-02-23T10:00:07.656Z,26.40
2023-02-23T10:01:07.718Z,25.90
2023-02-23T10:02:07.650Z,25.60
2023-02-23T10:03:07.650Z,23.80
2023-02-23T10:04:07.615Z,21.70
2023-02-23T10:05:07.703Z,24.40
2023-02-23T10:06:07.605Z,24.00
2023-02-23T10:07:07.548Z,21.70
2023-02-23T10:08:07.692Z,20.20
2023-02-23T10:09:07.560Z,19.50
2023-02-23T10:10:07.560Z,19.20
2023-02-23T10:11:07.556Z,18.50
2023-02-23T10:12:07.500Z,17.90
2023-02-23T10:13:07.498Z,17.60
2023-02-23T10:14:07.486Z,18.80
2023-02-23T10:15:07.622Z,19.40
2023-02-23T10:16:07.520Z,19.90
2023-02-23T10:17:07.547Z,18.50
2023-02-23T10:18:07.418Z,17.30
2023-02-23T10:19:07.386Z,17.60
2023-02-23T10:20:07.424Z,17.70
2023-02-23T10:21:07.473Z,19.10
2023-02-23T10:22:07.420Z,16.50
2023-02-23T10:23:07.419Z,17.50
2023-02-23T10:24:07.381Z,20.00
2023-02-23T10:25:07.308Z,16.10
2023-02-23T10:26:07.351Z,18.70
2023-02-23T10:27:07.319Z,18.20
2023-02-23T10:28:07.287Z,15.80
2023-02-23T10:29:07.294Z,14.90
2023-02-23T10:30:07.342Z,16.30
2023-02-23T10:31:07.334Z,15.00
2023-02-23T10:32:07.300Z,15.10
2023-02-23T10:33:07.246Z,16.10
2023-02-23T10:34:07.197Z,15.50
2023-02-23T10:35:07.205Z,17.10
2023-02-23T10:36:13.184Z,16.00
2023-02-23T10:37:08.136Z,15.20
2023-02-23T10:38:07.171Z,17.00
2023-02-23T10:39:07.223Z,15.50
2023-02-23T10:40:07.145Z,14.20
2023-02-23T10:41:07.140Z,18.10
2023-02-23T10:42:07.097Z,15.70
2023-02-23T10:43:07.055Z,16.00
2023-02-23T10:44:16.409Z,16.50
2023-02-23T10:45:08.455Z,20.50
2023-02-23T10:46:07.114Z,14.90
2023-02-23T10:47:07.069Z,14.30
2023-02-23T10:48:07.005Z,17.80
2023-02-23T10:49:06.986Z,16.50
2023-02-23T10:50:06.981Z,18.30
2023-02-23T10:51:07.089Z,18.30
2023-02-23T10:52:06.935Z,26.60
2023-02-23T10:53:07.017Z,16.70
2023-02-23T10:54:08.237Z,17.00
2023-02-23T10:55:06.916Z,15.20
2023-02-23T10:56:06.978Z,15.10
2023-02-23T10:57:07.010Z,15.40
2023-02-23T10:58:06.920Z,14.70
2023-02-23T10:59:06.913Z,17.30
2023-02-23T11:00:06.819Z,15.20
2023-02-23T11:01:06.850Z,15.40
2023-02-23T11:02:06.908Z,14.80
2023-02-23T11:03:06.844Z,15.60
2023-02-23T11:04:06.844Z,20.70
2023-02-23T11:05:06.804Z,16.40
2023-02-23T11:06:06.804Z,17.00
2023-02-23T11:07:06.786Z,16.10
2023-02-23T11:08:06.735Z,15.70
2023-02-23T11:09:06.974Z,14.70
2023-02-23T11:10:06.804Z,15.80
2023-02-23T11:11:06.683Z,14.70
2023-02-23T11:12:06.678Z,14.90
2023-02-23T11:13:06.786Z,16.60
2023-02-23T11:14:06.640Z,15.10
2023-02-23T11:15:06.723Z,15.00
2023-02-23T11:16:06.651Z,15.00
2023-02-23T11:17:06.625Z,14.20
2023-02-23T11:18:06.595Z,17.80
2023-02-23T11:19:06.583Z,14.60
2023-02-23T11:20:06.604Z,15.30
2023-02-23T11:21:06.580Z,16.60
2023-02-23T11:22:06.571Z,14.60
2023-02-23T11:23:14.203Z,17.10
2023-02-23T11:24:07.505Z,14.80
2023-02-23T11:25:06.493Z,14.30
2023-02-23T11:26:06.539Z,16.30
2023-02-23T11:27:06.596Z,14.80
2023-02-23T11:28:06.478Z,18.50
2023-02-23T11:29:06.443Z,16.60
2023-02-23T11:30:06.485Z,14.80
2023-02-23T11:31:06.508Z,15.50
2023-02-23T11:32:10.102Z,15.10
2023-02-23T11:33:06.472Z,16.00
2023-02-23T11:34:06.417Z,18.30
2023-02-23T11:35:06.381Z,15.60
2023-02-23T11:36:06.414Z,15.50
2023-02-23T11:37:06.325Z,16.60
2023-02-23T11:38:06.322Z,13.20
2023-02-23T11:39:06.456Z,14.40
2023-02-23T11:40:06.416Z,17.00
2023-02-23T11:41:06.312Z,12.80
2023-02-23T11:42:06.514Z,15.70
2023-02-23T11:43:06.315Z,14.90
2023-02-23T11:44:06.633Z,12.60
2023-02-23T11:45:06.364Z,13.70
2023-02-23T11:46:06.401Z,14.80
2023-02-23T11:47:06.222Z,15.90
2023-02-23T11:48:06.297Z,13.40
2023-02-23T11:49:06.165Z,13.60
2023-02-23T11:50:06.211Z,17.40
2023-02-23T11:51:06.240Z,18.60
2023-02-23T11:52:06.182Z,14.80
2023-02-23T11:53:06.134Z,15.30
2023-02-23T11:54:06.184Z,13.70
2023-02-23T11:55:06.148Z,16.20
2023-02-23T11:56:06.084Z,14.10
2023-02-23T11:57:06.131Z,11.80
2023-02-23T11:58:06.122Z,11.80
2023-02-23T11:59:06.047Z,13.70
2023-02-23T12:00:06.018Z,14.40
2023-02-23T12:01:06.101Z,13.20
2023-02-23T12:02:06.008Z,15.20
2023-02-23T12:03:06.106Z,14.00
2023-02-23T12:04:06.011Z,14.70
2023-02-23T12:05:06.010Z,12.70
2023-02-23T12:06:05.995Z,14.20
2023-02-23T12:07:06.065Z,15.60
2023-02-23T12:08:06.032Z,16.20
2023-02-23T12:09:05.916Z,14.60
2023-02-23T12:10:05.899Z,13.90
2023-02-23T12:11:05.979Z,13.70
2023-02-23T12:12:05.867Z,13.70
2023-02-23T12:13:05.871Z,12.60
2023-02-23T12:14:05.866Z,12.50
2023-02-23T12:15:05.824Z,11.70
2023-02-23T12:16:05.860Z,10.60
2023-02-23T12:17:05.891Z,11.00
2023-02-23T12:18:05.812Z,12.40
2023-02-23T12:19:05.802Z,11.20
2023-02-23T12:20:05.790Z,10.80
2023-02-23T12:21:05.759Z,10.40
2023-02-23T12:22:05.743Z,10.70
2023-02-23T12:23:05.811Z,10.50
2023-02-23T12:24:05.721Z,8.90
2023-02-23T12:25:05.733Z,13.90
2023-02-23T12:26:05.920Z,10.80
2023-02-23T12:27:05.697Z,9.60
2023-02-23T12:28:18.261Z,10.30
2023-02-23T12:29:06.668Z,10.10
2023-02-23T12:30:08.450Z,10.70
2023-02-23T12:31:05.612Z,11.70
2023-02-23T12:32:05.884Z,11.70
2023-02-23T12:33:05.590Z,13.20
2023-02-23T12:34:05.625Z,11.10
2023-02-23T12:35:05.739Z,12.30
2023-02-23T12:36:05.560Z,11.40
2023-02-23T12:37:05.544Z,12.30
2023-02-23T12:38:05.714Z,10.70
2023-02-23T12:39:05.476Z,11.80
2023-02-23T12:40:05.490Z,12.90
2023-02-23T12:41:05.559Z,9.50
2023-02-23T12:42:05.697Z,13.10
2023-02-23T12:43:05.428Z,11.80
2023-02-23T12:44:05.415Z,11.80
2023-02-23T12:45:05.405Z,9.80
2023-02-23T12:46:08.163Z,11.60